Observation data for Tulia on 03/12/2018      Previous  Date  Next       Current Mesonet Observations  Soil Data  Daily Summary Page  Observations in Plain Language
KTIS 120500Z 04006KT 02/M11 A3035 RMK A01 T00211109  RH  038%=      5-min Rain = 0
KTIS 120505Z 05006KT 02/M11 A3035 RMK A01 T00181113  RH  038%=      5-min Rain = 0
KTIS 120510Z 05006KT 01/M11 A3035 RMK A01 T00131111  RH  040%=      5-min Rain = 0
KTIS 120515Z 05006KT 01/M11 A3035 RMK A01 T00101111  RH  040%=      5-min Rain = 0
KTIS 120520Z 05005KT 01/M11 A3035 RMK A01 T00091108  RH  042%=      5-min Rain = 0
KTIS 120525Z 04004KT 01/M10 A3035 RMK A01 T00111100  RH  044%=      5-min Rain = 0
KTIS 120530Z 03003KT 01/M10 A3035 RMK A01 T00141102  RH  042%=      5-min Rain = 0
KTIS 120535Z 02001KT 01/M11 A3035 RMK A01 T00121110  RH  040%=      5-min Rain = 0
KTIS 120540Z 00001KT 01/M11 A3035 RMK A01 T00071113  RH  041%=      5-min Rain = 0
KTIS 120545Z 02002KT 01/M11 A3035 RMK A01 T00051108  RH  043%=      5-min Rain = 0
KTIS 120550Z 02003KT 01/M10 A3035 RMK A01 T00051101  RH  046%=      5-min Rain = 0
KTIS 120555Z 02003KT 00/M10 A3035 RMK A01 T00011101  RH  047%=      5-min Rain = 0
KTIS 120600Z 02004KT M00/M10 A3035 RMK A01 T10031100  RH  048%=      5-min Rain = 0
KTIS 120605Z 01003KT M01/M10 A3036 RMK A01 T10071102  RH  049%=      5-min Rain = 0
KTIS 120610Z 01002KT M01/M10 A3036 RMK A01 T10081100  RH  050%=      5-min Rain = 0
KTIS 120615Z 01002KT M01/M10 A3036 RMK A01 T10071103  RH  049%=      5-min Rain = 0
KTIS 120620Z 33002KT M01/M10 A3036 RMK A01 T10061102  RH  049%=      5-min Rain = 0
KTIS 120625Z 34003KT M01/M10 A3036 RMK A01 T10061102  RH  049%=      5-min Rain = 0
KTIS 120630Z 02002KT M01/M10 A3036 RMK A01 T10071102  RH  049%=      5-min Rain = 0
KTIS 120635Z 02002KT M01/M10 A3036 RMK A01 T10061100  RH  049%=      5-min Rain = 0
KTIS 120640Z 03003KT M01/M10 A3036 RMK A01 T10051101  RH  049%=      5-min Rain = 0
KTIS 120645Z 03003KT M01/M10 A3036 RMK A01 T10051101  RH  049%=      5-min Rain = 0
KTIS 120650Z 03003KT M01/M10 A3036 RMK A01 T10051100  RH  049%=      5-min Rain = 0
KTIS 120655Z 03003KT M01/M10 A3036 RMK A01 T10051100  RH  049%=      5-min Rain = 0
KTIS 120700Z 03000KT M01/M10 A3036 RMK A01 T10081104  RH  049%=      5-min Rain = 0
KTIS 120705Z 02000KT M01/M10 A3036 RMK A01 T10091102  RH  050%=      5-min Rain = 0
KTIS 120710Z 02001KT M01/M10 A3036 RMK A01 T10071101  RH  050%=      5-min Rain = 0
KTIS 120715Z 03002KT M01/M10 A3036 RMK A01 T10071097  RH  051%=      5-min Rain = 0
KTIS 120720Z 04003KT M01/M09 A3036 RMK A01 T10071094  RH  052%=      5-min Rain = 0
KTIS 120725Z 04003KT M01/M09 A3036 RMK A01 T10051093  RH  052%=      5-min Rain = 0
KTIS 120730Z 03002KT M01/M10 A3036 RMK A01 T10101099  RH  051%=      5-min Rain = 0
KTIS 120735Z 03002KT M02/M10 A3036 RMK A01 T10151099  RH  053%=      5-min Rain = 0
KTIS 120740Z 03003KT M01/M10 A3036 RMK A01 T10141096  RH  054%=      5-min Rain = 0
KTIS 120745Z 03002KT M01/M10 A3036 RMK A01 T10141098  RH  053%=      5-min Rain = 0
KTIS 120750Z 03002KT M02/M10 A3036 RMK A01 T10151097  RH  054%=      5-min Rain = 0
KTIS 120755Z 02002KT M02/M09 A3036 RMK A01 T10171094  RH  056%=      5-min Rain = 0
KTIS 120800Z 02002KT M02/M09 A3036 RMK A01 T10181094  RH  057%=      5-min Rain = 0
KTIS 120805Z 01002KT M02/M09 A3036 RMK A01 T10191093  RH  058%=      5-min Rain = 0
KTIS 120810Z 01003KT M02/M09 A3036 RMK A01 T10201094  RH  058%=      5-min Rain = 0
KTIS 120815Z 00003KT M02/M10 A3036 RMK A01 T10221095  RH  058%=      5-min Rain = 0
KTIS 120820Z 32004KT M02/M09 A3036 RMK A01 T10221093  RH  059%=      5-min Rain = 0
KTIS 120825Z 33003KT M02/M09 A3036 RMK A01 T10211092  RH  059%=      5-min Rain = 0
KTIS 120830Z 36003KT M02/M09 A3036 RMK A01 T10201091  RH  059%=      5-min Rain = 0
KTIS 120835Z 02004KT M02/M10 A3036 RMK A01 T10191095  RH  057%=      5-min Rain = 0
KTIS 120840Z 03003KT M02/M10 A3036 RMK A01 T10201098  RH  056%=      5-min Rain = 0
KTIS 120845Z 03002KT M02/M10 A3036 RMK A01 T10211098  RH  056%=      5-min Rain = 0
KTIS 120850Z 34000KT M02/M10 A3036 RMK A01 T10221101  RH  055%=      5-min Rain = 0
KTIS 120855Z 27002KT M02/M09 A3036 RMK A01 T10191092  RH  058%=      5-min Rain = 0
KTIS 120900Z 26001KT M02/M09 A3035 RMK A01 T10161087  RH  059%=      5-min Rain = 0
KTIS 120905Z 27002KT M01/M09 A3035 RMK A01 T10141086  RH  059%=      5-min Rain = 0
KTIS 120910Z 25004KT M01/M09 A3035 RMK A01 T10141088  RH  058%=      5-min Rain = 0
KTIS 120915Z 26002KT M01/M09 A3035 RMK A01 T10121086  RH  058%=      5-min Rain = 0
KTIS 120920Z 26003KT M01/M09 A3035 RMK A01 T10131089  RH  057%=      5-min Rain = 0
KTIS 120925Z 27004KT M01/M09 A3035 RMK A01 T10141089  RH  057%=      5-min Rain = 0
KTIS 120930Z 27004KT M01/M09 A3035 RMK A01 T10131085  RH  058%=      5-min Rain = 0
KTIS 120935Z 28004KT M01/M08 A3034 RMK A01 T10111084  RH  058%=      5-min Rain = 0
KTIS 120940Z 28004KT M01/M08 A3034 RMK A01 T10101084  RH  058%=      5-min Rain = 0
KTIS 120945Z 28004KT M01/M08 A3034 RMK A01 T10071082  RH  057%=      5-min Rain = 0
KTIS 120950Z 27004KT M00/M08 A3034 RMK A01 T10041081  RH  057%=      5-min Rain = 0
KTIS 120955Z 27004KT M00/M08 A3034 RMK A01 T10011079  RH  057%=      5-min Rain = 0
KTIS 121000Z 28004KT M00/M08 A3035 RMK A01 T10011077  RH  057%=      5-min Rain = 0
KTIS 121005Z 30004KT M00/M08 A3035 RMK A01 T10021075  RH  059%=      5-min Rain = 0
KTIS 121010Z 30004KT M01/M08 A3035 RMK A01 T10051075  RH  060%=      5-min Rain = 0
KTIS 121015Z 30004KT M01/M08 A3035 RMK A01 T10071075  RH  061%=      5-min Rain = 0
KTIS 121020Z 30003KT M01/M08 A3035 RMK A01 T10071075  RH  061%=      5-min Rain = 0
KTIS 121025Z 29003KT M01/M07 A3035 RMK A01 T10061074  RH  061%=      5-min Rain = 0
KTIS 121030Z 30003KT M01/M07 A3035 RMK A01 T10051073  RH  061%=      5-min Rain = 0
KTIS 121035Z 31004KT M01/M08 A3035 RMK A01 T10071078  RH  059%=      5-min Rain = 0
KTIS 121040Z 31005KT M01/M08 A3035 RMK A01 T10101081  RH  059%=      5-min Rain = 0
KTIS 121045Z 31005KT M01/M08 A3035 RMK A01 T10121083  RH  059%=      5-min Rain = 0
KTIS 121050Z 31005KT M01/M09 A3036 RMK A01 T10131086  RH  059%=      5-min Rain = 0
KTIS 121055Z 31004KT M02/M09 A3036 RMK A01 T10171089  RH  058%=      5-min Rain = 0
KTIS 121100Z 30004KT M02/M09 A3036 RMK A01 T10191090  RH  059%=      5-min Rain = 0
KTIS 121105Z 28003KT M02/M09 A3036 RMK A01 T10201090  RH  059%=      5-min Rain = 0
KTIS 121110Z 27003KT M02/M09 A3036 RMK A01 T10211088  RH  061%=      5-min Rain = 0
KTIS 121115Z 27003KT M02/M09 A3036 RMK A01 T10211086  RH  062%=      5-min Rain = 0
KTIS 121120Z 29003KT M02/M08 A3036 RMK A01 T10191080  RH  063%=      5-min Rain = 0
KTIS 121125Z 30003KT M02/M08 A3036 RMK A01 T10151079  RH  063%=      5-min Rain = 0
KTIS 121130Z 30003KT M01/M08 A3035 RMK A01 T10141077  RH  063%=      5-min Rain = 0
KTIS 121135Z 31002KT M02/M08 A3035 RMK A01 T10171080  RH  062%=      5-min Rain = 0
KTIS 121140Z 32003KT M02/M08 A3035 RMK A01 T10211082  RH  064%=      5-min Rain = 0
KTIS 121145Z 32002KT M03/M09 A3035 RMK A01 T10261087  RH  064%=      5-min Rain = 0
KTIS 121150Z 32003KT M03/M09 A3035 RMK A01 T10311087  RH  066%=      5-min Rain = 0
KTIS 121155Z 32003KT M03/M09 A3035 RMK A01 T10341089  RH  067%=      5-min Rain = 0
KTIS 121200Z 32003KT M03/M09 A3035 RMK A01 T10331088  RH  066%=      5-min Rain = 0
KTIS 121205Z 32003KT M04/M09 A3035 RMK A01 T10351090  RH  066%=      5-min Rain = 0
KTIS 121210Z 32003KT M04/M09 A3035 RMK A01 T10371092  RH  066%=      5-min Rain = 0
KTIS 121215Z 32003KT M04/M09 A3035 RMK A01 T10371090  RH  067%=      5-min Rain = 0
KTIS 121220Z 32004KT M03/M09 A3035 RMK A01 T10321086  RH  067%=      5-min Rain = 0
KTIS 121225Z 32004KT M03/M09 A3035 RMK A01 T10311087  RH  066%=      5-min Rain = 0
KTIS 121230Z 32004KT M03/M09 A3035 RMK A01 T10331088  RH  066%=      5-min Rain = 0
KTIS 121235Z 32003KT M03/M09 A3035 RMK A01 T10341089  RH  067%=      5-min Rain = 0
KTIS 121240Z 32003KT M03/M09 A3035 RMK A01 T10341090  RH  066%=      5-min Rain = 0
KTIS 121245Z 30004KT M03/M09 A3036 RMK A01 T10341090  RH  066%=      5-min Rain = 0
KTIS 121250Z 30004KT M03/M09 A3036 RMK A01 T10331090  RH  066%=      5-min Rain = 0
KTIS 121255Z 29004KT M03/M09 A3036 RMK A01 T10321085  RH  068%=      5-min Rain = 0
KTIS 121300Z 29004KT M03/M09 A3036 RMK A01 T10311086  RH  067%=      5-min Rain = 0
KTIS 121305Z 29004KT M03/M08 A3036 RMK A01 T10311084  RH  067%=      5-min Rain = 0
KTIS 121310Z 29004KT M03/M08 A3037 RMK A01 T10301082  RH  068%=      5-min Rain = 0
KTIS 121315Z 29004KT M03/M08 A3037 RMK A01 T10311082  RH  069%=      5-min Rain = 0
KTIS 121320Z 29004KT M03/M08 A3037 RMK A01 T10321083  RH  069%=      5-min Rain = 0
KTIS 121325Z 29004KT M03/M08 A3037 RMK A01 T10331083  RH  069%=      5-min Rain = 0
KTIS 121330Z 29004KT M03/M08 A3037 RMK A01 T10311081  RH  069%=      5-min Rain = 0
KTIS 121335Z 29003KT M03/M08 A3037 RMK A01 T10271078  RH  069%=      5-min Rain = 0
KTIS 121340Z 29003KT M02/M08 A3037 RMK A01 T10221075  RH  068%=      5-min Rain = 0
KTIS 121345Z 30003KT M02/M07 A3037 RMK A01 T10171071  RH  067%=      5-min Rain = 0
KTIS 121350Z 29003KT M01/M07 A3037 RMK A01 T10121068  RH  067%=      5-min Rain = 0
KTIS 121355Z 30002KT M01/M07 A3037 RMK A01 T10071065  RH  066%=      5-min Rain = 0
KTIS 121400Z 30001KT M00/M06 A3037 RMK A01 T10021062  RH  065%=      5-min Rain = 0
KTIS 121405Z 30002KT 00/M06 A3037 RMK A01 T00041059  RH  064%=      5-min Rain = 0
KTIS 121410Z 29002KT 01/M06 A3037 RMK A01 T00091057  RH  062%=      5-min Rain = 0
KTIS 121415Z 27002KT 01/M06 A3038 RMK A01 T00141055  RH  061%=      5-min Rain = 0
KTIS 121420Z 26002KT 02/M05 A3038 RMK A01 T00191053  RH  059%=      5-min Rain = 0
KTIS 121425Z 24003KT 03/M05 A3038 RMK A01 T00251054  RH  057%=      5-min Rain = 0
KTIS 121430Z 22003KT 03/M05 A3038 RMK A01 T00301051  RH  056%=      5-min Rain = 0
KTIS 121435Z 20003KT 03/M05 A3038 RMK A01 T00341047  RH  056%=      5-min Rain = 0
KTIS 121440Z 20003KT 04/M05 A3038 RMK A01 T00351045  RH  056%=      5-min Rain = 0
KTIS 121445Z 19004KT 04/M04 A3038 RMK A01 T00361043  RH  057%=      5-min Rain = 0
KTIS 121450Z 20004KT 04/M04 A3038 RMK A01 T00391042  RH  056%=      5-min Rain = 0
KTIS 121455Z 19004KT 04/M04 A3038 RMK A01 T00401042  RH  056%=      5-min Rain = 0
KTIS 121500Z 19004KT 04/M04 A3038 RMK A01 T00441040  RH  055%=      5-min Rain = 0
KTIS 121505Z 19005KT 05/M04 A3038 RMK A01 T00481038  RH  054%=      5-min Rain = 0
KTIS 121510Z 20005KT 05/M04 A3038 RMK A01 T00531037  RH  053%=      5-min Rain = 0
KTIS 121515Z 21005KT 06/M04 A3039 RMK A01 T00561037  RH  052%=      5-min Rain = 0
KTIS 121520Z 21005KT 06/M04 A3039 RMK A01 T00581036  RH  051%=      5-min Rain = 0
KTIS 121525Z 18004KT 06/M03 A3039 RMK A01 T00601033  RH  052%=      5-min Rain = 0
KTIS 121530Z 19004KT 06/M03 A3039 RMK A01 T00641033  RH  050%=      5-min Rain = 0
KTIS 121535Z 17003KT 07/M03 A3039 RMK A01 T00671032  RH  050%=      5-min Rain = 0
KTIS 121540Z 18004KT 07/M03 A3039 RMK A01 T00711033  RH  048%=      5-min Rain = 0
KTIS 121545Z 18004KT 07/M03 A3038 RMK A01 T00731033  RH  047%=      5-min Rain = 0
KTIS 121550Z 20004KT 08/M03 A3038 RMK A01 T00781032  RH  046%=      5-min Rain = 0
KTIS 121555Z 20004KT 08/M03 A3039 RMK A01 T00791033  RH  045%=      5-min Rain = 0
KTIS 121600Z 21004KT 08/M03 A3038 RMK A01 T00791034  RH  045%=      5-min Rain = 0
KTIS 121605Z 17003KT 08/M04 A3038 RMK A01 T00811035  RH  045%=      5-min Rain = 0
KTIS 121610Z 17004KT 09/M03 A3038 RMK A01 T00851033  RH  044%=      5-min Rain = 0
KTIS 121615Z 20005KT 09/M03 A3038 RMK A01 T00851034  RH  043%=      5-min Rain = 0
KTIS 121620Z 21007KT 09/M04 A3038 RMK A01 T00851035  RH  043%=      5-min Rain = 0
KTIS 121625Z 22005G10KT 08/M04 A3038 RMK A01 T00831037  RH  043%=      5-min Rain = 0
KTIS 121630Z 21006KT 08/M04 A3038 RMK A01 T00841038  RH  043%=      5-min Rain = 0
KTIS 121635Z 20007KT 09/M04 A3038 RMK A01 T00871038  RH  042%=      5-min Rain = 0
KTIS 121640Z 19005KT 09/M04 A3038 RMK A01 T00891037  RH  041%=      5-min Rain = 0
KTIS 121645Z 18006KT 09/M04 A3038 RMK A01 T00901035  RH  041%=      5-min Rain = 0
KTIS 121650Z 14004KT 09/M04 A3038 RMK A01 T00911035  RH  041%=      5-min Rain = 0
KTIS 121655Z 17004KT 09/M04 A3038 RMK A01 T00941039  RH  039%=      5-min Rain = 0
KTIS 121700Z 18004G9KT 10/M04 A3037 RMK A01 T00951038  RH  039%=      5-min Rain = 0
KTIS 121705Z 20007KT 09/M04 A3037 RMK A01 T00931037  RH  040%=      5-min Rain = 0
KTIS 121710Z 21007KT 09/M04 A3037 RMK A01 T00921037  RH  040%=      5-min Rain = 0
KTIS 121715Z 20007KT 10/M04 A3037 RMK A01 T00951038  RH  039%=      5-min Rain = 0
KTIS 121720Z 19006KT 09/M04 A3037 RMK A01 T00941039  RH  039%=      5-min Rain = 0
KTIS 121725Z 22005KT 09/M04 A3036 RMK A01 T00931040  RH  039%=      5-min Rain = 0
KTIS 121730Z 22005KT 10/M04 A3036 RMK A01 T00961043  RH  038%=      5-min Rain = 0
KTIS 121735Z 22005KT 10/M04 A3036 RMK A01 T00951042  RH  038%=      5-min Rain = 0
KTIS 121740Z 24004G9KT 10/M04 A3036 RMK A01 T00961044  RH  037%=      5-min Rain = 0
KTIS 121745Z 20003KT 10/M04 A3035 RMK A01 T00971043  RH  037%=      5-min Rain = 0
KTIS 121750Z 21003KT 10/M05 A3035 RMK A01 T01011049  RH  035%=      5-min Rain = 0
KTIS 121755Z 17005KT 10/M04 A3035 RMK A01 T01011044  RH  036%=      5-min Rain = 0
KTIS 121800Z 15004KT 10/M04 A3035 RMK A01 T01031043  RH  036%=      5-min Rain = 0
KTIS 121805Z 10002KT 10/M04 A3035 RMK A01 T01041044  RH  035%=      5-min Rain = 0
KTIS 121810Z 12003KT 10/M05 A3035 RMK A01 T01031046  RH  035%=      5-min Rain = 0
KTIS 121815Z 17004KT 11/M04 A3035 RMK A01 T01061044  RH  035%=      5-min Rain = 0
KTIS 121820Z 17005KT 11/M04 A3035 RMK A01 T01081043  RH  035%=      5-min Rain = 0
KTIS 121825Z 21003G8KT 11/M05 A3035 RMK A01 T01111046  RH  033%=      5-min Rain = 0
KTIS 121830Z 22005G10KT 11/M05 A3034 RMK A01 T01111054  RH  031%=      5-min Rain = 0
KTIS 121835Z 23004KT 11/M06 A3034 RMK A01 T01091056  RH  031%=      5-min Rain = 0
KTIS 121840Z 27004KT 11/M06 A3034 RMK A01 T01111060  RH  030%=      5-min Rain = 0
KTIS 121845Z 18007KT 11/M06 A3033 RMK A01 T01131059  RH  030%=      5-min Rain = 0
KTIS 121850Z 15004KT 11/M06 A3033 RMK A01 T01101061  RH  030%=      5-min Rain = 0
KTIS 121855Z 19003G8KT 11/M06 A3032 RMK A01 T01111057  RH  031%=      5-min Rain = 0
KTIS 121900Z 15003KT 11/M05 A3032 RMK A01 T01141053  RH  031%=      5-min Rain = 0
KTIS 121905Z 13004KT 12/M05 A3031 RMK A01 T01151054  RH  031%=      5-min Rain = 0
KTIS 121910Z 17003KT 12/M06 A3031 RMK A01 T01151059  RH  029%=      5-min Rain = 0
KTIS 121915Z 16004G9KT 12/M06 A3031 RMK A01 T01181058  RH  029%=      5-min Rain = 0
KTIS 121920Z 14004KT 12/M06 A3031 RMK A01 T01201057  RH  029%=      5-min Rain = 0
KTIS 121925Z 21003G10KT 12/M06 A3031 RMK A01 T01221055  RH  029%=      5-min Rain = 0
KTIS 121930Z 24005KT 12/M06 A303 RMK A01 T01231057  RH  028%=      5-min Rain = 0
KTIS 121935Z 21005G11KT 12/M06 A303 RMK A01 T01221058  RH  028%=      5-min Rain = 0
KTIS 121940Z 19004KT 12/M06 A303 RMK A01 T01241060  RH  027%=      5-min Rain = 0
KTIS 121945Z 16007KT 13/M06 A3029 RMK A01 T01251057  RH  028%=      5-min Rain = 0
KTIS 121950Z 13004G10KT 13/M06 A3029 RMK A01 T01251057  RH  028%=      5-min Rain = 0
KTIS 121955Z 17005KT 13/M06 A3028 RMK A01 T01251059  RH  028%=      5-min Rain = 0
KTIS 122000Z 20004KT 13/M06 A3028 RMK A01 T01281061  RH  027%=      5-min Rain = 0
KTIS 122005Z 22005G10KT 13/M06 A3028 RMK A01 T01301062  RH  026%=      5-min Rain = 0
KTIS 122010Z 25007KT 13/M06 A3028 RMK A01 T01311063  RH  026%=      5-min Rain = 0
KTIS 122015Z 30004KT 13/M07 A3028 RMK A01 T01251066  RH  026%=      5-min Rain = 0
KTIS 122020Z 21002G8KT 13/M07 A3027 RMK A01 T01251065  RH  026%=      5-min Rain = 0
KTIS 122025Z 21004G9KT 13/M06 A3027 RMK A01 T01291062  RH  026%=      5-min Rain = 0
KTIS 122030Z 18005KT 14/M06 A3027 RMK A01 T01351057  RH  026%=      5-min Rain = 0
KTIS 122035Z 16004KT 14/M06 A3027 RMK A01 T01361062  RH  025%=      5-min Rain = 0
KTIS 122040Z 16004G9KT 13/M06 A3026 RMK A01 T01331062  RH  025%=      5-min Rain = 0
KTIS 122045Z 20004G11KT 13/M06 A3026 RMK A01 T01321063  RH  026%=      5-min Rain = 0
KTIS 122050Z 19006KT 14/M06 A3026 RMK A01 T01381060  RH  025%=      5-min Rain = 0
KTIS 122055Z 14004KT 14/M06 A3025 RMK A01 T01351062  RH  025%=      5-min Rain = 0
KTIS 122100Z 09000KT 13/M06 A3025 RMK A01 T01331062  RH  025%=      5-min Rain = 0
KTIS 122105Z 17004G12KT 14/M06 A3024 RMK A01 T01401057  RH  025%=      5-min Rain = 0
KTIS 122110Z 22005KT 14/M06 A3024 RMK A01 T01421060  RH  024%=      5-min Rain = 0
KTIS 122115Z 23004KT 14/M06 A3024 RMK A01 T01401062  RH  024%=      5-min Rain = 0
KTIS 122120Z 24005KT 14/M06 A3024 RMK A01 T01421061  RH  024%=      5-min Rain = 0
KTIS 122125Z 16008KT 14/M06 A3023 RMK A01 T01421058  RH  025%=      5-min Rain = 0
KTIS 122130Z 16004KT 14/M06 A3023 RMK A01 T01411062  RH  024%=      5-min Rain = 0
KTIS 122135Z 18003G13KT 14/M06 A3023 RMK A01 T01401063  RH  024%=      5-min Rain = 0
KTIS 122140Z 19007KT 14/M06 A3023 RMK A01 T01411064  RH  024%=      5-min Rain = 0
KTIS 122145Z 17004G9KT 14/M07 A3022 RMK A01 T01401065  RH  024%=      5-min Rain = 0
KTIS 122150Z 20005G12KT 14/M06 A3022 RMK A01 T01411062  RH  024%=      5-min Rain = 0
KTIS 122155Z 19008KT 14/M07 A3022 RMK A01 T01411065  RH  024%=      5-min Rain = 0
KTIS 122200Z 19007KT 14/M06 A3022 RMK A01 T01411064  RH  024%=      5-min Rain = 0
KTIS 122205Z 18006G16KT 14/M06 A3021 RMK A01 T01421059  RH  024%=      5-min Rain = 0
KTIS 122210Z 17008G16KT 14/M06 A3021 RMK A01 T01421059  RH  025%=      5-min Rain = 0
KTIS 122215Z 16008KT 14/M05 A3021 RMK A01 T01431049  RH  026%=      5-min Rain = 0
KTIS 122220Z 15007KT 14/M05 A3021 RMK A01 T01421054  RH  026%=      5-min Rain = 0
KTIS 122225Z 17002KT 14/M06 A3021 RMK A01 T01411059  RH  025%=      5-min Rain = 0
KTIS 122230Z 19005KT 14/M06 A302 RMK A01 T01431064  RH  024%=      5-min Rain = 0
KTIS 122235Z 16009KT 14/M05 A302 RMK A01 T01421054  RH  025%=      5-min Rain = 0
KTIS 122240Z 17005G10KT 14/M06 A302 RMK A01 T01431060  RH  024%=      5-min Rain = 0
KTIS 122245Z 15006KT 14/M06 A302 RMK A01 T01421059  RH  025%=      5-min Rain = 0
KTIS 122250Z 17007G12KT 14/M06 A302 RMK A01 T01421059  RH  025%=      5-min Rain = 0
KTIS 122255Z 21008G13KT 14/M07 A302 RMK A01 T01411066  RH  023%=      5-min Rain = 0
KTIS 122300Z 18005KT 14/M07 A302 RMK A01 T01391067  RH  024%=      5-min Rain = 0
KTIS 122305Z 19007G12KT 14/M07 A302 RMK A01 T01391067  RH  024%=      5-min Rain = 0
KTIS 122310Z 20007KT 14/M07 A3019 RMK A01 T01391067  RH  024%=      5-min Rain = 0
KTIS 122315Z 17008G15KT 14/M06 A3019 RMK A01 T01411058  RH  025%=      5-min Rain = 0
KTIS 122320Z 18006G11KT 14/M06 A3019 RMK A01 T01401064  RH  024%=      5-min Rain = 0
KTIS 122325Z 20008KT 14/M07 A3019 RMK A01 T01391066  RH  024%=      5-min Rain = 0
KTIS 122330Z 23006KT 14/M07 A3019 RMK A01 T01381067  RH  024%=      5-min Rain = 0
KTIS 122335Z 22006KT 14/M07 A3019 RMK A01 T01391067  RH  024%=      5-min Rain = 0
KTIS 122340Z 19007KT 14/M07 A3019 RMK A01 T01391068  RH  023%=      5-min Rain = 0
KTIS 122345Z 18008KT 14/M06 A3019 RMK A01 T01361064  RH  025%=      5-min Rain = 0
KTIS 122350Z 18006KT 13/M07 A3019 RMK A01 T01321067  RH  025%=      5-min Rain = 0
KTIS 122355Z 18006KT 13/M07 A3019 RMK A01 T01301069  RH  025%=      5-min Rain = 0
KTIS 130000Z 17006KT 13/M06 A3019 RMK A01 T01281059  RH  027%=      5-min Rain = 0
KTIS 130005Z 17007KT 13/M06 A3019 RMK A01 T01251060  RH  027%=      5-min Rain = 0
KTIS 130010Z 18006KT 12/M07 A302 RMK A01 T01241069  RH  026%=      5-min Rain = 0
KTIS 130015Z 19007KT 12/M07 A302 RMK A01 T01231070  RH  026%=      5-min Rain = 0
KTIS 130020Z 19007KT 12/M07 A302 RMK A01 T01211071  RH  026%=      5-min Rain = 0
KTIS 130025Z 19007KT 12/M07 A302 RMK A01 T01211071  RH  026%=      5-min Rain = 0
KTIS 130030Z 19006KT 12/M07 A302 RMK A01 T01191072  RH  026%=      5-min Rain = 0
KTIS 130035Z 19006KT 12/M07 A302 RMK A01 T01171072  RH  026%=      5-min Rain = 0
KTIS 130040Z 19005KT 12/M07 A302 RMK A01 T01161072  RH  026%=      5-min Rain = 0
KTIS 130045Z 18006KT 11/M07 A302 RMK A01 T01121073  RH  027%=      5-min Rain = 0
KTIS 130050Z 18006KT 11/M07 A302 RMK A01 T01071074  RH  028%=      5-min Rain = 0
KTIS 130055Z 18006KT 10/M08 A302 RMK A01 T01021075  RH  028%=      5-min Rain = 0
KTIS 130100Z 18006KT 10/M08 A302 RMK A01 T00991076  RH  029%=      5-min Rain = 0
KTIS 130105Z 18006KT 10/M08 A302 RMK A01 T00971077  RH  029%=      5-min Rain = 0
KTIS 130110Z 18006KT 10/M08 A302 RMK A01 T00951075  RH  030%=      5-min Rain = 0
KTIS 130115Z 17005KT 09/M05 A302 RMK A01 T00921051  RH  036%=      5-min Rain = 0
KTIS 130120Z 18006KT 09/M05 A302 RMK A01 T00891050  RH  037%=      5-min Rain = 0
KTIS 130125Z 17006KT 09/M05 A302 RMK A01 T00871048  RH  039%=      5-min Rain = 0
KTIS 130130Z 17006KT 09/M04 A3021 RMK A01 T00861040  RH  041%=      5-min Rain = 0
KTIS 130135Z 17006KT 08/M05 A3021 RMK A01 T00841049  RH  039%=      5-min Rain = 0
KTIS 130140Z 17005KT 08/M04 A3021 RMK A01 T00821044  RH  041%=      5-min Rain = 0
KTIS 130145Z 16005KT 08/M04 A3021 RMK A01 T00811044  RH  041%=      5-min Rain = 0
KTIS 130150Z 17006KT 08/M04 A3021 RMK A01 T00801044  RH  041%=      5-min Rain = 0
KTIS 130155Z 17006KT 08/M04 A3021 RMK A01 T00791039  RH  044%=      5-min Rain = 0
KTIS 130200Z 16006KT 08/M04 A3021 RMK A01 T00781039  RH  044%=      5-min Rain = 0
KTIS 130205Z 15007KT 07/M04 A3021 RMK A01 T00741037  RH  046%=      5-min Rain = 0
KTIS 130210Z 15007KT 07/M04 A3021 RMK A01 T00711042  RH  045%=      5-min Rain = 0
KTIS 130215Z 15007KT 07/M04 A3021 RMK A01 T00681037  RH  048%=      5-min Rain = 0
KTIS 130220Z 15007KT 07/M03 A3021 RMK A01 T00651033  RH  050%=      5-min Rain = 0
KTIS 130225Z 15007KT 06/M04 A3021 RMK A01 T00641037  RH  049%=      5-min Rain = 0
KTIS 130230Z 15007KT 06/M04 A3021 RMK A01 T00641038  RH  048%=      5-min Rain = 0
KTIS 130235Z 16008KT 07/M05 A3021 RMK A01 T00651045  RH  046%=      5-min Rain = 0
KTIS 130240Z 16008KT 07/M05 A3021 RMK A01 T00651048  RH  045%=      5-min Rain = 0
KTIS 130245Z 16008KT 06/M05 A3021 RMK A01 T00631053  RH  044%=      5-min Rain = 0
KTIS 130250Z 16008KT 06/M06 A3021 RMK A01 T00621056  RH  043%=      5-min Rain = 0
KTIS 130255Z 16008KT 06/M06 A3021 RMK A01 T00611056  RH  043%=      5-min Rain = 0
KTIS 130300Z 12007KT 06/M05 A3021 RMK A01 T00581047  RH  047%=      5-min Rain = 0
KTIS 130305Z 12007KT 05/M05 A3022 RMK A01 T00531054  RH  047%=      5-min Rain = 0
KTIS 130310Z 13008KT 06/M05 A3022 RMK A01 T00551051  RH  047%=      5-min Rain = 0
KTIS 130315Z 13008KT 06/M05 A3022 RMK A01 T00571052  RH  046%=      5-min Rain = 0
KTIS 130320Z 13009KT 06/M05 A3022 RMK A01 T00581049  RH  047%=      5-min Rain = 0
KTIS 130325Z 13009KT 06/M05 A3022 RMK A01 T00571046  RH  048%=      5-min Rain = 0
KTIS 130330Z 13010KT 06/M05 A3022 RMK A01 T00581045  RH  048%=      5-min Rain = 0
KTIS 130335Z 13009KT 06/M04 A3022 RMK A01 T00591044  RH  048%=      5-min Rain = 0
KTIS 130340Z 13008KT 06/M04 A3022 RMK A01 T00571044  RH  049%=      5-min Rain = 0
KTIS 130345Z 13008KT 05/M04 A3022 RMK A01 T00541043  RH  050%=      5-min Rain = 0
KTIS 130350Z 13009KT 05/M05 A3022 RMK A01 T00521047  RH  049%=      5-min Rain = 0
KTIS 130355Z 13009KT 05/M05 A3022 RMK A01 T00521048  RH  049%=      5-min Rain = 0
KTIS 130400Z 14009KT 05/M05 A3022 RMK A01 T00501048  RH  049%=      5-min Rain = 0
KTIS 130405Z 14008KT 05/M05 A3022 RMK A01 T00481048  RH  050%=      5-min Rain = 0
KTIS 130410Z 14008KT 05/M05 A3022 RMK A01 T00471050  RH  050%=      5-min Rain = 0
KTIS 130415Z 14008KT 05/M05 A3022 RMK A01 T00451049  RH  051%=      5-min Rain = 0
KTIS 130420Z 14006KT 04/M05 A3022 RMK A01 T00421048  RH  053%=      5-min Rain = 0
KTIS 130425Z 14006KT 04/M05 A3022 RMK A01 T00391048  RH  054%=      5-min Rain = 0
KTIS 130430Z 13007KT 04/M05 A3022 RMK A01 T00371051  RH  053%=      5-min Rain = 0
KTIS 130435Z 13007KT 04/M05 A3022 RMK A01 T00371050  RH  053%=      5-min Rain = 0
KTIS 130440Z 13007KT 04/M05 A3022 RMK A01 T00351050  RH  054%=      5-min Rain = 0
KTIS 130445Z 13006KT 03/M05 A3022 RMK A01 T00331052  RH  054%=      5-min Rain = 0
KTIS 130450Z 13006KT 03/M05 A3022 RMK A01 T00301049  RH  057%=      5-min Rain = 0
KTIS 130455Z 12006KT 03/M05 A3022 RMK A01 T00271047  RH  059%=      5-min Rain = 0

Page generated in 0.0244 seconds.